Time;durP1;ratioP1;P1;durP2;ratioP2;P2;SDS_P1;SDS_P2;PMS_P1;PMS_P2;Temp;Humidity;BMP_temperature;BMP_pressure;BME280_temperature;BME280_humidity;BME280_pressure;Samples;Min_cycle;Max_cycle;Signal;HPM_P1;HPM_P2
2021/06/25 00:01:33;;;;;;;3.87;3.20;;;16.10;99.90;;;;;;5117860;28;20417;-45
2021/06/25 00:03:59;;;;;;;2.97;2.70;;;16.10;99.90;;;;;;5117628;28;20172;-47
2021/06/25 00:06:24;;;;;;;3.60;3.23;;;16.10;99.90;;;;;;5117952;28;20880;-46
2021/06/25 00:08:50;;;;;;;5.93;3.90;;;16.00;99.90;;;;;;5117756;28;20474;-44
2021/06/25 00:11:17;;;;;;;3.23;3.00;;;15.90;99.90;;;;;;5116751;28;20231;-44
2021/06/25 00:13:43;;;;;;;4.30;2.40;;;15.90;99.90;;;;;;5117298;28;20293;-44
2021/06/25 00:16:09;;;;;;;2.80;2.60;;;15.90;99.90;;;;;;5117789;28;20493;-47
2021/06/25 00:18:35;;;;;;;3.13;2.83;;;15.90;99.90;;;;;;5117482;28;20520;-44
2021/06/25 00:21:00;;;;;;;2.90;2.00;;;15.90;99.90;;;;;;5117841;28;20187;-44
2021/06/25 00:23:26;;;;;;;2.43;2.23;;;15.90;99.90;;;;;;5117284;28;20417;-47
2021/06/25 00:25:53;;;;;;;3.27;2.30;;;15.90;99.90;;;;;;5117550;28;20180;-44
2021/06/25 00:28:21;;;;;;;2.40;2.20;;;15.80;99.90;;;;;;5117595;28;20207;-43
2021/06/25 00:30:47;;;;;;;2.47;2.27;;;15.90;99.90;;;;;;5117345;28;20413;-44
2021/06/25 00:33:13;;;;;;;2.23;2.03;;;15.80;99.90;;;;;;5117198;28;20992;-43
2021/06/25 00:35:40;;;;;;;1.93;1.73;;;15.90;99.90;;;;;;5117869;28;20483;-43
2021/06/25 00:38:06;;;;;;;2.90;1.67;;;15.80;99.90;;;;;;5117779;28;20417;-45
2021/06/25 00:40:35;;;;;;;2.13;1.80;;;15.80;99.90;;;;;;5117790;28;20414;-46
2021/06/25 00:43:01;;;;;;;2.00;1.60;;;15.70;99.90;;;;;;5117447;28;20444;-43
2021/06/25 00:45:27;;;;;;;2.00;1.80;;;15.70;99.90;;;;;;5117564;28;20414;-45
2021/06/25 00:47:53;;;;;;;1.97;1.60;;;15.80;99.90;;;;;;5117514;28;20437;-43
2021/06/25 00:50:31;;;;;;;1.60;1.50;;;15.70;99.90;;;;;;5099932;28;20184;-47
2021/06/25 00:52:58;;;;;;;1.77;1.40;;;15.70;99.90;;;;;;5117533;28;20425;-42
2021/06/25 00:55:28;;;;;;;1.53;1.43;;;15.70;99.90;;;;;;5117267;28;20836;-43
2021/06/25 00:57:54;;;;;;;1.93;1.40;;;15.70;99.90;;;;;;5117098;28;20426;-44
2021/06/25 01:00:21;;;;;;;1.90;1.70;;;15.70;99.90;;;;;;5117244;28;20496;-44
2021/06/25 01:02:47;;;;;;;2.50;1.37;;;15.70;99.90;;;;;;5120138;28;20421;-44
2021/06/25 01:05:15;;;;;;;1.50;1.40;;;15.80;99.90;;;;;;5120119;28;20424;-43
2021/06/25 01:07:41;;;;;;;1.67;1.43;;;15.60;99.90;;;;;;5119667;28;20431;-43
2021/06/25 01:10:11;;;;;;;2.37;1.50;;;15.60;99.90;;;;;;5085373;28;20437;-44
2021/06/25 01:12:43;;;;;;;2.50;1.60;;;15.70;99.90;;;;;;5119865;28;20970;-43
2021/06/25 01:15:10;;;;;;;6.50;1.57;;;15.60;99.90;;;;;;5119783;28;20702;-46
2021/06/25 01:17:39;;;;;;;1.70;1.40;;;15.60;99.90;;;;;;5119583;28;20449;-45
2021/06/25 01:20:17;;;;;;;1.57;1.47;;;15.50;99.90;;;;;;5119912;28;20417;-45
2021/06/25 01:22:44;;;;;;;2.73;1.40;;;15.50;99.90;;;;;;5119579;28;20696;-45
2021/06/25 01:25:18;;;;;;;2.03;1.73;;;15.50;99.90;;;;;;5119773;28;20679;-45
2021/06/25 01:27:47;;;;;;;2.03;1.47;;;15.50;99.90;;;;;;5119795;28;20581;-43
2021/06/25 01:30:18;;;;;;;2.50;2.30;;;15.50;99.90;;;;;;5119439;28;20525;-43
2021/06/25 01:32:45;;;;;;;2.20;1.97;;;15.60;99.90;;;;;;5119476;28;20634;-45
2021/06/25 01:35:12;;;;;;;2.20;1.70;;;15.70;99.90;;;;;;5101161;28;20877;-44
2021/06/25 01:37:38;;;;;;;2.10;1.90;;;15.70;99.90;;;;;;5119184;28;20865;-45
2021/06/25 01:40:08;;;;;;;2.07;1.87;;;15.70;99.90;;;;;;5119683;28;20507;-44
2021/06/25 01:42:35;;;;;;;3.23;2.30;;;15.70;99.90;;;;;;5118967;28;20905;-44
2021/06/25 01:45:14;;;;;;;2.33;2.13;;;15.70;99.90;;;;;;5101281;28;20425;-43
2021/06/25 01:47:41;;;;;;;2.30;2.10;;;15.70;99.90;;;;;;5101503;28;20432;-44
2021/06/25 01:50:10;;;;;;;3.50;2.83;;;15.70;99.90;;;;;;5119263;28;20433;-43
2021/06/25 01:52:36;;;;;;;2.27;2.07;;;15.70;99.90;;;;;;5100966;28;20560;-47
2021/06/25 01:55:03;;;;;;;2.80;2.40;;;15.70;99.90;;;;;;5118993;28;20421;-43
2021/06/25 01:57:30;;;;;;;2.60;2.40;;;15.80;99.90;;;;;;5119290;28;20912;-44
2021/06/25 01:59:56;;;;;;;4.10;2.73;;;15.70;99.90;;;;;;5118932;28;20440;-43
2021/06/25 02:02:22;;;;;;;2.50;2.30;;;15.70;99.90;;;;;;5118595;28;20468;-43
2021/06/25 02:04:48;;;;;;;3.23;2.93;;;15.70;99.90;;;;;;5118709;28;20172;-45
2021/06/25 02:07:14;;;;;;;3.77;3.33;;;15.70;99.90;;;;;;5118345;28;20483;-45
2021/06/25 02:09:40;;;;;;;4.00;2.70;;;15.70;99.90;;;;;;5118306;28;20187;-45
2021/06/25 02:12:06;;;;;;;3.40;2.97;;;15.70;99.90;;;;;;5116709;28;20270;-44
2021/06/25 02:14:32;;;;;;;3.43;3.10;;;15.70;99.90;;;;;;5116379;28;20436;-44
2021/06/25 02:16:58;;;;;;;3.80;3.10;;;15.80;99.90;;;;;;5117259;28;20734;-46
2021/06/25 02:19:24;;;;;;;4.20;3.10;;;15.80;99.90;;;;;;5116958;28;20187;-45
2021/06/25 02:21:50;;;;;;;4.03;2.53;;;15.80;99.90;;;;;;5117370;28;20409;-45
2021/06/25 02:24:16;;;;;;;4.20;3.37;;;15.90;99.90;;;;;;5116744;28;20571;-44
2021/06/25 02:26:42;;;;;;;4.50;3.17;;;15.90;99.90;;;;;;5100154;28;20787;-46
2021/06/25 02:29:08;;;;;;;2.80;2.60;;;15.90;99.90;;;;;;5118205;28;20175;-44
2021/06/25 02:31:34;;;;;;;2.83;2.63;;;15.80;99.90;;;;;;5118502;28;20418;-44
2021/06/25 02:34:00;;;;;;;4.20;3.60;;;15.80;99.90;;;;;;5118521;28;20435;-43
2021/06/25 02:36:26;;;;;;;3.57;2.67;;;15.90;99.90;;;;;;5118278;28;20614;-44
2021/06/25 02:38:52;;;;;;;3.43;2.93;;;15.90;99.90;;;;;;5117945;28;20532;-45
2021/06/25 02:41:19;;;;;;;2.90;2.60;;;15.90;99.90;;;;;;5118330;28;20184;-44
2021/06/25 02:43:46;;;;;;;5.03;2.47;;;15.90;99.90;;;;;;5118172;28;20417;-43
2021/06/25 02:46:12;;;;;;;3.27;2.80;;;15.90;99.90;;;;;;5100160;28;20417;-46
2021/06/25 02:48:38;;;;;;;3.60;2.93;;;15.90;99.90;;;;;;5117967;28;20442;-43
2021/06/25 02:51:04;;;;;;;3.00;2.63;;;15.90;99.90;;;;;;5118182;28;20432;-48
2021/06/25 02:53:30;;;;;;;3.30;3.00;;;15.80;99.90;;;;;;5117998;28;20445;-45
2021/06/25 02:55:56;;;;;;;3.27;2.80;;;15.80;99.90;;;;;;5117679;28;20472;-44
2021/06/25 02:58:24;;;;;;;2.97;2.40;;;15.80;99.90;;;;;;5117547;28;20870;-44
2021/06/25 03:00:50;;;;;;;2.67;2.47;;;15.70;99.90;;;;;;5117731;28;20570;-44
2021/06/25 03:03:17;;;;;;;3.60;2.80;;;15.70;99.90;;;;;;5117629;28;20509;-45
2021/06/25 03:05:43;;;;;;;3.27;2.90;;;15.70;99.90;;;;;;5117861;28;20692;-45
2021/06/25 03:08:11;;;;;;;3.60;2.97;;;15.80;99.90;;;;;;5117473;28;20421;-45
2021/06/25 03:10:36;;;;;;;3.87;3.07;;;15.80;99.90;;;;;;5117300;28;20513;-46
2021/06/25 03:13:03;;;;;;;4.23;2.90;;;15.90;99.90;;;;;;5116223;28;20516;-43
2021/06/25 03:15:29;;;;;;;3.03;2.73;;;15.90;99.90;;;;;;5116226;28;20542;-43
2021/06/25 03:17:56;;;;;;;4.00;3.70;;;15.90;99.90;;;;;;5098566;28;20436;-43
2021/06/25 03:20:21;;;;;;;4.07;2.80;;;15.90;99.90;;;;;;5116643;28;20432;-47
2021/06/25 03:22:47;;;;;;;3.40;3.10;;;15.90;99.90;;;;;;5116386;28;20425;-44
2021/06/25 03:25:13;;;;;;;3.10;2.80;;;15.90;99.90;;;;;;5116360;28;20417;-45
2021/06/25 03:27:40;;;;;;;3.50;3.20;;;15.90;99.90;;;;;;5116838;28;20442;-44
2021/06/25 03:30:10;;;;;;;5.40;3.30;;;15.80;99.90;;;;;;5115297;28;20559;-44
2021/06/25 03:32:36;;;;;;;3.57;2.87;;;15.80;99.90;;;;;;5115795;28;20461;-45
2021/06/25 03:35:04;;;;;;;3.55;2.50;;;15.80;99.90;;;;;;5097922;28;20409;-45
2021/06/25 03:37:30;;;;;;;2.27;2.07;;;15.70;99.90;;;;;;5097439;28;20448;-47
2021/06/25 03:39:56;;;;;;;2.43;2.23;;;15.70;99.90;;;;;;5115247;28;20824;-44
2021/06/25 03:42:24;;;;;;;2.83;2.53;;;15.70;99.90;;;;;;5115593;28;20435;-46
2021/06/25 03:44:49;;;;;;;2.33;2.07;;;15.60;99.90;;;;;;5116682;28;20475;-45
2021/06/25 03:47:16;;;;;;;1.80;1.63;;;15.40;99.90;;;;;;5116835;28;20425;-44
2021/06/25 03:49:42;;;;;;;2.57;1.70;;;15.50;99.90;;;;;;5117078;28;20429;-46
2021/06/25 03:52:08;;;;;;;2.43;2.23;;;15.50;99.90;;;;;;5115530;28;20694;-44
2021/06/25 03:54:34;;;;;;;2.10;1.90;;;15.50;99.90;;;;;;5114187;28;20414;-44
2021/06/25 03:57:00;;;;;;;1.93;1.67;;;15.50;99.90;;;;;;5114516;28;20716;-44
2021/06/25 03:59:26;;;;;;;1.70;1.60;;;15.50;99.90;;;;;;5114698;28;20437;-46
2021/06/25 04:01:52;;;;;;;1.97;1.60;;;15.50;99.90;;;;;;5113797;28;20751;-44
2021/06/25 04:04:19;;;;;;;2.00;1.80;;;15.50;99.90;;;;;;5113754;28;20597;-45
2021/06/25 04:06:45;;;;;;;1.87;1.67;;;15.50;99.90;;;;;;5114966;28;20852;-44
2021/06/25 04:09:11;;;;;;;2.60;2.40;;;15.60;99.90;;;;;;5115167;28;20429;-43
2021/06/25 04:11:36;;;;;;;3.03;1.77;;;15.70;99.90;;;;;;5116231;28;20553;-42
2021/06/25 04:14:03;;;;;;;2.40;2.20;;;15.70;99.90;;;;;;5114695;28;20727;-43
2021/06/25 04:16:29;;;;;;;1.57;1.40;;;15.90;99.90;;;;;;5116074;28;20203;-44
2021/06/25 04:18:55;;;;;;;2.50;2.30;;;16.10;99.90;;;;;;5116035;28;20687;-44
2021/06/25 04:21:21;;;;;;;2.30;1.77;;;16.20;99.90;;;;;;5115301;28;20421;-42
2021/06/25 04:23:48;;;;;;;2.97;1.80;;;16.20;99.90;;;;;;5115715;28;20508;-45
2021/06/25 04:26:14;;;;;;;3.10;2.10;;;16.20;99.90;;;;;;5116495;28;20515;-43
2021/06/25 04:28:40;;;;;;;2.30;1.93;;;16.30;99.90;;;;;;5116239;28;20544;-43
2021/06/25 04:31:06;;;;;;;2.37;1.80;;;16.40;99.90;;;;;;5115219;28;20486;-43
2021/06/25 04:33:32;;;;;;;2.70;1.70;;;16.40;99.90;;;;;;5113972;28;20429;-43
2021/06/25 04:35:58;;;;;;;4.67;2.20;;;16.50;99.90;;;;;;5113551;28;20208;-46
2021/06/25 04:38:24;;;;;;;2.37;2.00;;;16.50;99.90;;;;;;5099193;28;20824;-43
2021/06/25 04:40:51;;;;;;;2.40;1.77;;;16.40;99.90;;;;;;5117381;28;20504;-43
2021/06/25 04:43:17;;;;;;;2.23;1.80;;;16.40;99.90;;;;;;5117506;28;20417;-43
2021/06/25 04:45:44;;;;;;;1.90;1.70;;;16.20;99.90;;;;;;5117916;28;20888;-42
2021/06/25 04:48:12;;;;;;;2.23;2.03;;;16.30;99.90;;;;;;5118920;28;20429;-45
2021/06/25 04:50:39;;;;;;;2.63;2.00;;;16.40;99.90;;;;;;5120406;28;20721;-43
2021/06/25 04:53:06;;;;;;;1.70;1.60;;;16.50;99.90;;;;;;5118999;28;20429;-43
2021/06/25 04:55:40;;;;;;;1.70;1.47;;;16.50;99.90;;;;;;5118501;28;20461;-44
2021/06/25 04:58:08;;;;;;;2.97;2.33;;;16.50;99.90;;;;;;5116784;28;20661;-42
2021/06/25 05:00:34;;;;;;;3.20;2.10;;;16.40;99.90;;;;;;5098588;28;20832;-44
2021/06/25 05:02:59;;;;;;;1.50;1.40;;;16.40;99.90;;;;;;5116468;28;20855;-44
2021/06/25 05:05:26;;;;;;;2.00;1.73;;;16.50;99.90;;;;;;5117328;28;20416;-42
2021/06/25 05:07:52;;;;;;;2.17;1.90;;;16.70;99.90;;;;;;5117427;28;20179;-43
2021/06/25 05:10:18;;;;;;;1.70;1.60;;;16.70;99.90;;;;;;5100000;28;20574;-43
2021/06/25 05:12:44;;;;;;;1.50;1.40;;;16.60;99.90;;;;;;5116504;28;20563;-43
2021/06/25 05:15:11;;;;;;;1.70;1.30;;;16.60;99.90;;;;;;5114711;28;20418;-43
2021/06/25 05:17:37;;;;;;;2.10;1.30;;;16.70;99.90;;;;;;5111359;28;20528;-43
2021/06/25 05:20:04;;;;;;;3.47;1.87;;;16.50;99.90;;;;;;5115737;28;20504;-43
2021/06/25 05:22:30;;;;;;;1.20;1.10;;;16.30;99.90;;;;;;5117125;28;20425;-44
2021/06/25 05:24:56;;;;;;;1.33;1.23;;;16.20;99.90;;;;;;5110141;28;20499;-43
2021/06/25 05:27:23;;;;;;;2.13;1.30;;;16.30;99.90;;;;;;5114677;28;20487;-48
2021/06/25 05:29:50;;;;;;;2.13;1.20;;;16.30;99.90;;;;;;5097716;28;20406;-43
2021/06/25 05:32:16;;;;;;;1.60;1.10;;;16.40;99.90;;;;;;5116159;28;20828;-43
2021/06/25 05:34:42;;;;;;;3.43;1.53;;;16.60;99.90;;;;;;5116959;28;20521;-45
2021/06/25 05:37:08;;;;;;;1.13;0.80;;;16.30;99.90;;;;;;5117606;28;20207;-43
2021/06/25 05:39:34;;;;;;;1.40;0.90;;;16.40;99.90;;;;;;5116473;28;20408;-43
2021/06/25 05:41:59;;;;;;;1.80;0.80;;;16.40;99.90;;;;;;5115693;28;20679;-44
2021/06/25 05:44:25;;;;;;;4.60;0.90;;;16.40;99.90;;;;;;5114149;28;20414;-43
2021/06/25 05:46:51;;;;;;;1.30;1.13;;;16.50;99.90;;;;;;5114792;28;20203;-43
2021/06/25 05:49:17;;;;;;;1.13;0.87;;;16.40;99.90;;;;;;5115436;28;20175;-43
2021/06/25 05:51:43;;;;;;;1.33;0.70;;;16.50;99.90;;;;;;5115986;28;20349;-43
2021/06/25 05:54:09;;;;;;;1.17;0.90;;;16.50;99.90;;;;;;5113318;28;20844;-43
2021/06/25 05:56:35;;;;;;;1.40;0.87;;;16.60;99.90;;;;;;5095618;28;20436;-45
2021/06/25 05:59:01;;;;;;;1.20;1.00;;;16.80;99.90;;;;;;5113491;28;20548;-45
2021/06/25 06:01:29;;;;;;;1.87;1.10;;;17.00;99.90;;;;;;5094324;28;20173;-44
2021/06/25 06:03:55;;;;;;;1.30;0.93;;;16.90;99.90;;;;;;5093551;28;20492;-46
2021/06/25 06:06:21;;;;;;;2.07;0.87;;;17.00;99.90;;;;;;5095016;28;20422;-43
2021/06/25 06:08:47;;;;;;;5.10;1.20;;;17.10;99.90;;;;;;5095639;28;20441;-44
2021/06/25 06:11:14;;;;;;;1.60;1.47;;;16.70;99.90;;;;;;5095598;28;20164;-46
2021/06/25 06:13:40;;;;;;;1.23;1.03;;;16.80;99.90;;;;;;5097406;28;20521;-44
2021/06/25 06:16:06;;;;;;;1.40;1.10;;;16.90;99.90;;;;;;5097181;28;20565;-46
2021/06/25 06:18:43;;;;;;;3.67;1.13;;;16.60;99.90;;;;;;5097229;28;20617;-45
2021/06/25 06:21:09;;;;;;;1.20;1.00;;;16.70;99.90;;;;;;5097257;28;20735;-43
2021/06/25 06:32:26;;;;;;;1.77;1.13;;;16.80;99.90;;;;;;5110660;28;20480;-44
2021/06/25 06:34:40;;;;;;;2.47;1.07;;;16.60;99.90;;;;;;5111483;28;20838;-44
2021/06/25 06:37:06;;;;;;;1.30;0.80;;;16.40;99.90;;;;;;5101862;28;20807;-45
2021/06/25 06:39:32;;;;;;;1.77;1.13;;;16.40;99.90;;;;;;5095946;28;20513;-43
2021/06/25 06:41:59;;;;;;;1.47;1.10;;;16.40;99.90;;;;;;5095302;28;20407;-45
2021/06/25 06:44:25;;;;;;;1.20;0.90;;;16.50;99.90;;;;;;5096004;28;20509;-44
2021/06/25 06:46:51;;;;;;;1.83;1.57;;;16.50;99.90;;;;;;5097138;28;20509;-45
2021/06/25 06:49:17;;;;;;;1.40;1.10;;;16.60;99.90;;;;;;5097629;28;20508;-43
2021/06/25 06:51:43;;;;;;;4.10;1.77;;;16.70;99.90;;;;;;5096528;28;20173;-44
2021/06/25 06:54:10;;;;;;;2.50;1.53;;;16.70;99.90;;;;;;5097212;28;20302;-43
2021/06/25 06:56:36;;;;;;;2.50;1.43;;;16.80;99.90;;;;;;5097081;28;20457;-45
2021/06/25 06:59:02;;;;;;;1.60;1.37;;;16.90;99.90;;;;;;5079174;28;20716;-43
2021/06/25 07:01:30;;;;;;;2.40;1.63;;;16.90;99.90;;;;;;5096241;28;20446;-45
2021/06/25 07:03:56;;;;;;;2.73;1.03;;;17.00;99.90;;;;;;5095866;28;20428;-45
2021/06/25 07:06:22;;;;;;;1.80;1.40;;;16.90;99.90;;;;;;5096828;28;20414;-43
2021/06/25 07:08:47;;;;;;;1.50;1.40;;;16.90;99.90;;;;;;5095194;28;20419;-47
2021/06/25 07:11:15;;;;;;;3.80;1.40;;;16.80;99.90;;;;;;5096628;28;20446;-44
2021/06/25 07:13:41;;;;;;;2.63;1.60;;;16.90;99.90;;;;;;5077481;28;20438;-44
2021/06/25 07:16:07;;;;;;;1.70;1.40;;;16.90;99.90;;;;;;5096019;28;20627;-45
2021/06/25 07:18:33;;;;;;;2.50;1.87;;;16.70;99.90;;;;;;5095077;28;20422;-44
2021/06/25 07:20:59;;;;;;;3.67;2.37;;;16.90;99.90;;;;;;5095804;28;20465;-44
2021/06/25 07:23:25;;;;;;;1.90;1.23;;;17.00;99.90;;;;;;5093637;28;20471;-46
2021/06/25 07:25:51;;;;;;;3.03;1.53;;;17.30;99.90;;;;;;5094232;28;20453;-44
2021/06/25 07:28:17;;;;;;;2.00;1.80;;;17.50;99.90;;;;;;5074987;28;20440;-46
2021/06/25 07:30:43;;;;;;;3.13;1.70;;;17.60;99.90;;;;;;5092944;28;20438;-45
2021/06/25 07:33:09;;;;;;;1.67;1.43;;;17.80;99.90;;;;;;5091235;28;20490;-43
2021/06/25 07:35:35;;;;;;;5.47;1.33;;;18.10;99.90;;;;;;5092006;28;20454;-46
2021/06/25 07:38:01;;;;;;;2.83;1.63;;;18.40;99.90;;;;;;5090959;28;20546;-45
2021/06/25 07:40:27;;;;;;;3.17;1.83;;;18.70;99.90;;;;;;5073992;28;20423;-43
2021/06/25 07:42:53;;;;;;;1.80;1.50;;;19.00;99.90;;;;;;5091852;28;20423;-44
2021/06/25 07:45:19;;;;;;;3.00;1.93;;;19.20;99.90;;;;;;5092491;28;20407;-44
2021/06/25 07:47:46;;;;;;;2.63;1.80;;;19.30;99.90;;;;;;5094374;28;20465;-47
2021/06/25 07:50:14;;;;;;;3.43;1.80;;;19.40;99.90;;;;;;5095489;28;20418;-46
2021/06/25 07:52:41;;;;;;;2.90;2.43;;;19.30;99.90;;;;;;5095041;28;20428;-46
2021/06/25 07:55:12;;;;;;;1.87;1.70;;;19.00;99.90;;;;;;5095259;28;20464;-45
2021/06/25 07:57:41;;;;;;;2.90;2.40;;;18.90;99.90;;;;;;5094465;28;20533;-44
2021/06/25 08:00:09;;;;;;;3.03;2.27;;;18.90;99.90;;;;;;5076443;28;20430;-47
2021/06/25 08:02:34;;;;;;;2.57;2.37;;;19.00;99.90;;;;;;5095191;28;20455;-45
2021/06/25 08:05:03;;;;;;;4.80;2.73;;;19.00;99.90;;;;;;5094596;28;20414;-46
2021/06/25 08:07:29;;;;;;;3.77;2.20;;;19.20;99.90;;;;;;5094160;28;20271;-42
2021/06/25 08:09:55;;;;;;;2.50;2.30;;;19.30;99.90;;;;;;5094380;28;20502;-44
2021/06/25 08:12:21;;;;;;;3.83;2.53;;;19.50;99.90;;;;;;5095467;28;20581;-42
2021/06/25 08:14:46;;;;;;;4.23;2.53;;;19.40;99.90;;;;;;5097667;28;20613;-43
2021/06/25 08:17:12;;;;;;;2.70;2.50;;;19.60;99.90;;;;;;5096642;28;20207;-42
2021/06/25 08:19:38;;;;;;;3.17;2.87;;;19.70;99.90;;;;;;5099367;28;20709;-43
2021/06/25 08:22:04;;;;;;;2.93;2.63;;;19.30;99.90;;;;;;5097122;28;20176;-42
2021/06/25 08:24:33;;;;;;;3.47;2.73;;;18.90;99.90;;;;;;5098670;28;20172;-42
2021/06/25 08:27:00;;;;;;;3.23;2.30;;;18.80;99.90;;;;;;5098599;28;20789;-43
2021/06/25 08:29:25;;;;;;;4.07;2.10;;;18.70;99.90;;;;;;5097928;28;20789;-45
2021/06/25 08:31:51;;;;;;;2.57;2.07;;;18.60;99.90;;;;;;5097492;28;20420;-42
2021/06/25 08:34:17;;;;;;;2.60;1.73;;;18.30;99.90;;;;;;5098037;28;20207;-45
2021/06/25 08:36:43;;;;;;;5.33;2.43;;;18.30;99.90;;;;;;5080833;28;20462;-46
2021/06/25 08:39:09;;;;;;;2.03;1.80;;;18.20;99.90;;;;;;5096516;28;20430;-44
2021/06/25 08:41:37;;;;;;;2.40;2.00;;;18.20;99.90;;;;;;5097848;28;20685;-44
2021/06/25 08:44:04;;;;;;;2.60;2.40;;;18.00;99.90;;;;;;5063404;28;20923;-48
2021/06/25 08:46:32;;;;;;;2.57;2.10;;;18.20;99.90;;;;;;5079412;28;20414;-44
2021/06/25 08:49:04;;;;;;;2.00;1.67;;;17.90;99.90;;;;;;5098527;28;20430;-46
2021/06/25 08:51:31;;;;;;;1.67;1.57;;;17.80;99.90;;;;;;5099400;28;20409;-47
2021/06/25 08:53:56;;;;;;;1.80;1.40;;;17.90;99.90;;;;;;5098694;28;20438;-44
2021/06/25 08:56:23;;;;;;;2.60;2.03;;;18.10;99.90;;;;;;5099890;28;20861;-45
2021/06/25 08:58:48;;;;;;;2.20;1.97;;;18.40;99.90;;;;;;5099048;28;20519;-47
2021/06/25 09:01:15;;;;;;;2.50;1.97;;;18.60;99.90;;;;;;5098058;28;20442;-47
2021/06/25 09:03:42;;;;;;;2.43;2.23;;;18.70;99.90;;;;;;5080153;28;20515;-44
2021/06/25 09:06:10;;;;;;;2.13;1.93;;;18.90;99.90;;;;;;5096465;28;20631;-44
2021/06/25 09:08:36;;;;;;;2.20;2.00;;;18.30;99.90;;;;;;5077733;28;20426;-43
2021/06/25 09:11:20;;;;;;;2.90;2.63;;;18.20;99.90;;;;;;5095631;28;20448;-43
2021/06/25 09:13:46;;;;;;;2.40;2.20;;;18.20;99.90;;;;;;5077561;28;20453;-43
2021/06/25 09:16:22;;;;;;;3.20;2.23;;;18.40;99.90;;;;;;5096304;28;20496;-43
2021/06/25 09:19:03;;;;;;;3.07;2.70;;;18.40;99.90;;;;;;5096908;28;20437;-44
2021/06/25 09:21:37;;;;;;;3.47;2.70;;;18.30;99.90;;;;;;5096885;28;20426;-45
2021/06/25 09:24:24;;;;;;;2.83;2.63;;;18.10;99.90;;;;;;5094995;28;20574;-45
2021/06/25 09:27:09;;;;;;;3.10;2.80;;;17.80;99.90;;;;;;5094501;28;20411;-45
2021/06/25 09:29:39;;;;;;;3.10;2.67;;;17.80;99.90;;;;;;5095229;28;20426;-46
2021/06/25 09:32:10;;;;;;;3.40;3.10;;;17.90;99.90;;;;;;5094083;28;20421;-44
2021/06/25 09:34:40;;;;;;;3.60;3.30;;;17.60;99.90;;;;;;5095256;28;20399;-46
2021/06/25 09:37:12;;;;;;;3.13;2.83;;;17.40;99.90;;;;;;5094489;28;20457;-39
2021/06/25 09:39:42;;;;;;;3.70;3.40;;;17.40;99.90;;;;;;5079620;28;20813;-39
2021/06/25 09:42:21;;;;;;;4.10;3.73;;;17.30;99.90;;;;;;5096605;28;20725;-37
2021/06/25 09:45:04;;;;;;;4.00;3.70;;;17.50;99.90;;;;;;5100052;28;20506;-37
2021/06/25 09:47:34;;;;;;;4.60;4.20;;;17.70;99.90;;;;;;5101164;28;20434;-38
2021/06/25 09:50:07;;;;;;;4.10;3.80;;;18.00;99.90;;;;;;5079362;28;20807;-37
2021/06/25 09:52:52;;;;;;;4.50;3.60;;;18.30;99.90;;;;;;5095656;28;20850;-39
2021/06/25 09:55:23;;;;;;;4.80;4.40;;;18.10;99.90;;;;;;5095794;28;20429;-38
2021/06/25 09:58:20;;;;;;;3.87;3.57;;;18.20;99.90;;;;;;5094309;28;20419;-39
2021/06/25 10:03:35;;;;;;;4.00;3.70;;;18.70;99.90;;;;;;5095402;28;20434;-38
2021/06/25 10:06:09;;;;;;;4.30;3.90;;;18.40;99.90;;;;;;5096676;28;20421;-38
2021/06/25 10:08:35;;;;;;;4.80;4.30;;;18.20;99.90;;;;;;5093747;28;20446;-36
2021/06/25 10:11:05;;;;;;;5.13;4.73;;;18.20;99.90;;;;;;5092415;28;20419;-36
2021/06/25 10:13:36;;;;;;;5.17;4.50;;;18.30;99.90;;;;;;5073524;28;20435;-38
2021/06/25 10:16:04;;;;;;;4.90;4.50;;;18.20;99.90;;;;;;5073865;28;20523;-36
2021/06/25 10:18:38;;;;;;;4.40;4.10;;;18.20;99.90;;;;;;5078161;28;20434;-37
2021/06/25 10:21:09;;;;;;;5.50;5.00;;;18.20;99.90;;;;;;5076732;28;20424;-36
2021/06/25 10:23:37;;;;;;;6.07;5.50;;;18.40;99.90;;;;;;5072405;28;20622;-36
2021/06/25 10:26:11;;;;;;;5.67;5.17;;;18.50;99.90;;;;;;5075094;28;20492;-38
2021/06/25 10:28:39;;;;;;;6.50;5.73;;;18.20;99.90;;;;;;5072902;28;20704;-39
2021/06/25 10:31:06;;;;;;;6.10;5.50;;;18.20;99.90;;;;;;5072199;28;20415;-36
2021/06/25 10:33:32;;;;;;;6.30;5.70;;;18.40;99.90;;;;;;5055072;28;20752;-36
2021/06/25 10:36:03;;;;;;;5.13;4.73;;;18.40;99.90;;;;;;5073680;28;20478;-35
2021/06/25 10:38:29;;;;;;;5.50;5.00;;;18.50;99.90;;;;;;5054580;28;20710;-36
2021/06/25 10:40:58;;;;;;;5.27;4.87;;;18.40;99.90;;;;;;5074306;28;20462;-36
2021/06/25 10:43:50;;;;;;;5.60;5.10;;;18.50;99.90;;;;;;5074686;28;20651;-37
2021/06/25 10:46:28;;;;;;;5.70;5.20;;;18.30;99.80;;;;;;5058629;28;20422;-38
2021/06/25 10:48:58;;;;;;;6.83;6.17;;;18.30;99.90;;;;;;5075607;28;20427;-37
2021/06/25 10:51:26;;;;;;;6.10;5.30;;;18.30;99.90;;;;;;5073865;28;20422;-39
2021/06/25 10:54:24;;;;;;;6.33;5.10;;;18.20;99.90;;;;;;5075286;28;20423;-37
2021/06/25 10:56:49;;;;;;;7.43;6.47;;;18.10;99.90;;;;;;5052023;28;20911;-37
2021/06/25 10:59:28;;;;;;;7.00;6.40;;;17.90;99.90;;;;;;5057710;28;20714;-38
2021/06/25 11:01:58;;;;;;;7.23;6.47;;;18.00;99.90;;;;;;5055125;28;20176;-38
2021/06/25 11:04:34;;;;;;;7.40;6.70;;;17.90;99.90;;;;;;5073716;28;20419;-37
2021/06/25 11:07:04;;;;;;;7.00;6.30;;;18.00;99.90;;;;;;5074748;28;20414;-38
2021/06/25 11:09:49;;;;;;;7.70;6.93;;;17.90;99.90;;;;;;5075135;28;20422;-37
2021/06/25 11:12:16;;;;;;;7.20;6.50;;;18.00;99.90;;;;;;5084580;28;20604;-38
2021/06/25 11:14:42;;;;;;;7.27;6.60;;;18.20;99.90;;;;;;5096147;28;20402;-39
2021/06/25 11:17:08;;;;;;;7.87;7.07;;;18.50;99.90;;;;;;5095332;28;20868;-37
2021/06/25 11:19:39;;;;;;;7.47;6.77;;;18.60;98.90;;;;;;5094875;28;20414;-39
2021/06/25 11:22:38;;;;;;;7.60;6.90;;;19.00;99.40;;;;;;5060922;28;20175;-39
2021/06/25 11:25:15;;;;;;;9.07;8.13;;;19.50;98.90;;;;;;5095877;28;20442;-38
2021/06/25 11:28:23;;;;;;;8.07;7.27;;;19.90;97.60;;;;;;5076780;28;20445;-38
2021/06/25 11:30:56;;;;;;;7.00;6.30;;;19.90;96.50;;;;;;5095686;28;20413;-38
2021/06/25 11:33:34;;;;;;;8.33;6.67;;;19.70;96.90;;;;;;5095708;28;20683;-37
2021/06/25 11:36:21;;;;;;;6.37;5.77;;;19.60;96.90;;;;;;5095724;28;20569;-38
2021/06/25 11:38:59;;;;;;;5.87;5.03;;;19.30;96.90;;;;;;5096259;28;20421;-40
2021/06/25 11:41:33;;;;;;;4.50;3.60;;;18.80;98.80;;;;;;5096445;28;20410;-37
2021/06/25 11:44:03;;;;;;;4.13;3.73;;;18.50;98.50;;;;;;5096544;28;20441;-38
2021/06/25 11:46:30;;;;;;;5.40;4.90;;;18.40;99.60;;;;;;5095823;28;20417;-37
2021/06/25 11:49:03;;;;;;;4.90;4.50;;;18.60;99.50;;;;;;5096193;28;20472;-38
2021/06/25 11:51:41;;;;;;;4.30;3.90;;;18.40;99.30;;;;;;5096337;28;20510;-38
2021/06/25 11:54:09;;;;;;;4.90;3.67;;;18.10;99.50;;;;;;5095135;28;20697;-36
2021/06/25 11:56:36;;;;;;;3.80;3.40;;;17.90;99.90;;;;;;5095083;28;20450;-38
2021/06/25 11:59:09;;;;;;;4.47;4.07;;;17.90;99.90;;;;;;5094732;28;20460;-38
2021/06/25 12:01:48;;;;;;;4.00;3.60;;;18.10;99.70;;;;;;5095267;28;20775;-38
2021/06/25 12:04:14;;;;;;;4.17;3.40;;;18.10;99.60;;;;;;5094487;28;20914;-38
2021/06/25 12:06:51;;;;;;;4.30;3.90;;;18.30;99.60;;;;;;5044698;28;20426;-38
2021/06/25 12:09:19;;;;;;;3.30;3.00;;;18.50;99.10;;;;;;5099838;28;20426;-39
2021/06/25 12:11:44;;;;;;;3.47;3.17;;;18.80;98.80;;;;;;5096267;28;20755;-38
2021/06/25 12:14:11;;;;;;;3.40;3.10;;;19.00;98.90;;;;;;5076470;28;20528;-38
2021/06/25 12:16:42;;;;;;;4.07;2.80;;;19.30;98.10;;;;;;5095104;28;20212;-38
2021/06/25 12:19:10;;;;;;;4.33;3.57;;;19.50;97.60;;;;;;5077416;28;20430;-38
2021/06/25 12:21:36;;;;;;;3.80;3.50;;;19.90;96.90;;;;;;5095914;28;20414;-38
2021/06/25 12:24:07;;;;;;;3.27;2.97;;;19.80;96.80;;;;;;5095956;28;20511;-38
2021/06/25 12:26:33;;;;;;;3.10;2.80;;;20.10;96.80;;;;;;5095631;28;20403;-39
2021/06/25 12:29:09;;;;;;;4.90;4.50;;;20.40;96.00;;;;;;5095755;28;20483;-39
2021/06/25 12:31:37;;;;;;;4.87;3.83;;;20.80;94.70;;;;;;5095157;28;20440;-40
2021/06/25 12:34:11;;;;;;;4.60;4.20;;;20.70;94.70;;;;;;5096082;28;20418;-38
2021/06/25 12:36:37;;;;;;;4.00;3.70;;;20.70;95.20;;;;;;5093389;28;20534;-39
2021/06/25 12:39:10;;;;;;;4.10;3.70;;;21.20;95.00;;;;;;5092600;28;20418;-39
2021/06/25 12:41:45;;;;;;;4.60;4.20;;;21.70;94.30;;;;;;5091873;28;20502;-37
2021/06/25 12:44:12;;;;;;;4.40;4.00;;;22.40;93.70;;;;;;5091679;28;20796;-41
2021/06/25 12:46:39;;;;;;;4.10;3.70;;;22.80;91.50;;;;;;5090452;28;20422;-41
2021/06/25 12:49:07;;;;;;;4.07;3.77;;;23.10;90.60;;;;;;5090241;28;20406;-38
2021/06/25 12:51:35;;;;;;;3.73;3.43;;;22.70;90.70;;;;;;5070864;28;20543;-39
2021/06/25 12:54:02;;;;;;;3.90;3.50;;;22.90;90.80;;;;;;5069812;28;20406;-39
2021/06/25 12:56:43;;;;;;;4.23;3.87;;;23.20;90.80;;;;;;5090000;28;20490;-40
2021/06/25 12:59:19;;;;;;;4.10;3.70;;;23.20;91.00;;;;;;5094508;28;20890;-39
2021/06/25 13:01:51;;;;;;;3.93;3.57;;;23.20;90.50;;;;;;5077477;28;20405;-40
2021/06/25 13:04:20;;;;;;;5.00;3.00;;;22.80;90.70;;;;;;5096564;28;20422;-39
2021/06/25 13:06:51;;;;;;;4.23;3.50;;;22.30;90.90;;;;;;5098884;28;20443;-41